Time;durP1;ratioP1;P1;durP2;ratioP2;P2;SDS_P1;SDS_P2;PMS_P1;PMS_P2;Temp;Humidity;BMP_temperature;BMP_pressure;BME280_temperature;BME280_humidity;BME280_pressure;Samples;Min_cycle;Max_cycle;Signal;HPM_P1;HPM_P2
2023/04/11 00:01:26;;;;;;;4.55;3.20;;;10.00;99.90;;;;;;5054206;28;20578;-62
2023/04/11 00:03:55;;;;;;;5.40;3.88;;;10.10;99.90;;;;;;5053699;28;20259;-61
2023/04/11 00:06:22;;;;;;;4.00;3.60;;;10.00;99.90;;;;;;5053878;28;20201;-61
2023/04/11 00:08:49;;;;;;;4.03;3.47;;;10.00;99.90;;;;;;5053472;28;20899;-61
2023/04/11 00:11:16;;;;;;;5.57;3.83;;;10.00;99.90;;;;;;5053490;28;20249;-61
2023/04/11 00:13:44;;;;;;;3.45;3.15;;;9.90;99.90;;;;;;5053205;28;20205;-61
2023/04/11 00:16:11;;;;;;;4.63;3.70;;;9.90;99.90;;;;;;5052986;28;20736;-59
2023/04/11 00:18:38;;;;;;;4.88;4.00;;;9.90;99.90;;;;;;5053719;28;20444;-61
2023/04/11 00:21:09;;;;;;;5.00;4.15;;;9.90;99.90;;;;;;5053194;28;20221;-62
2023/04/11 00:23:36;;;;;;;4.20;3.37;;;9.90;99.90;;;;;;5052972;28;20190;-62
2023/04/11 00:26:03;;;;;;;5.85;4.15;;;9.90;99.90;;;;;;5053592;28;20448;-61
2023/04/11 00:28:30;;;;;;;4.03;3.30;;;9.90;99.90;;;;;;5057310;28;20208;-61
2023/04/11 00:30:57;;;;;;;3.20;2.72;;;9.80;99.90;;;;;;5057376;28;20225;-60
2023/04/11 00:33:23;;;;;;;3.27;2.97;;;9.80;99.90;;;;;;5057700;28;20201;-60
2023/04/11 00:35:50;;;;;;;3.25;2.92;;;9.80;99.90;;;;;;5057910;28;20482;-61
2023/04/11 00:38:18;;;;;;;4.95;3.60;;;9.80;99.90;;;;;;5057617;28;20208;-60
2023/04/11 00:40:45;;;;;;;4.65;2.83;;;9.80;99.90;;;;;;5057173;28;20304;-62
2023/04/11 00:43:12;;;;;;;3.97;3.67;;;9.80;99.90;;;;;;5059285;28;20574;-61
2023/04/11 00:45:39;;;;;;;4.57;3.50;;;9.70;99.90;;;;;;5061004;28;20292;-61
2023/04/11 00:48:06;;;;;;;4.78;3.50;;;9.70;99.90;;;;;;5059464;28;20201;-61
2023/04/11 00:50:33;;;;;;;4.45;4.03;;;9.70;99.90;;;;;;5058550;28;20235;-61
2023/04/11 00:53:00;;;;;;;5.10;3.50;;;9.70;99.90;;;;;;5060102;28;20313;-60
2023/04/11 00:55:28;;;;;;;3.50;3.20;;;9.70;99.90;;;;;;5057257;28;20451;-61
2023/04/11 00:57:55;;;;;;;4.65;2.85;;;9.70;99.90;;;;;;5057372;28;20221;-61
2023/04/11 01:00:22;;;;;;;2.58;2.38;;;9.70;99.90;;;;;;5057430;28;20226;-61
2023/04/11 01:02:49;;;;;;;2.58;2.38;;;9.70;99.90;;;;;;5057062;28;20205;-61
2023/04/11 01:05:17;;;;;;;2.95;2.65;;;9.70;99.90;;;;;;5057393;28;20197;-60
2023/04/11 01:07:48;;;;;;;2.25;1.75;;;9.70;99.90;;;;;;5056857;28;20197;-61
2023/04/11 01:10:17;;;;;;;6.05;2.90;;;9.70;99.90;;;;;;5056807;28;20190;-60
2023/04/11 01:12:46;;;;;;;2.53;2.10;;;9.70;99.90;;;;;;5056620;28;20206;-61
2023/04/11 01:15:13;;;;;;;2.10;1.80;;;9.70;99.90;;;;;;5057120;28;20450;-60
2023/04/11 01:17:41;;;;;;;2.75;2.00;;;9.70;99.90;;;;;;5057186;28;20228;-60
2023/04/11 01:20:09;;;;;;;2.22;2.03;;;9.70;99.90;;;;;;5056755;28;20210;-60
2023/04/11 01:22:37;;;;;;;4.70;2.20;;;9.70;99.90;;;;;;5056992;28;20248;-59
2023/04/11 01:25:05;;;;;;;1.85;1.65;;;9.70;99.90;;;;;;5057013;28;20444;-61
2023/04/11 01:27:33;;;;;;;2.10;1.50;;;9.70;99.90;;;;;;5060588;28;20267;-61
2023/04/11 01:30:00;;;;;;;3.28;2.33;;;9.70;99.90;;;;;;5058444;28;20582;-60
2023/04/11 01:32:27;;;;;;;4.97;2.13;;;9.70;99.90;;;;;;5057680;28;20259;-60
2023/04/11 01:34:56;;;;;;;5.87;1.90;;;9.70;99.90;;;;;;5058548;28;20254;-61
2023/04/11 01:37:23;;;;;;;1.95;1.83;;;9.70;99.90;;;;;;5060069;28;20796;-60
2023/04/11 01:39:50;;;;;;;2.60;2.05;;;9.70;99.90;;;;;;5059432;28;20205;-60
2023/04/11 01:42:19;;;;;;;2.22;1.92;;;9.70;99.90;;;;;;5060884;28;20222;-60
2023/04/11 01:44:46;;;;;;;2.70;1.97;;;9.70;99.90;;;;;;5060233;28;20204;-60
2023/04/11 01:47:13;;;;;;;2.85;1.85;;;9.60;99.90;;;;;;5060653;28;20463;-60
2023/04/11 01:49:40;;;;;;;3.28;2.28;;;9.60;99.90;;;;;;5059501;28;20211;-62
2023/04/11 01:52:06;;;;;;;2.03;1.80;;;9.60;99.90;;;;;;5059889;28;20325;-61
2023/04/11 01:54:33;;;;;;;2.75;1.63;;;9.60;99.90;;;;;;5060402;28;20208;-62
2023/04/11 01:57:00;;;;;;;2.38;1.92;;;9.50;99.90;;;;;;5059097;28;20224;-62
2023/04/11 01:59:28;;;;;;;1.52;1.42;;;9.50;99.90;;;;;;5056633;28;20263;-62
2023/04/11 02:01:55;;;;;;;1.75;1.20;;;9.50;99.90;;;;;;5058320;28;20236;-62
2023/04/11 02:04:22;;;;;;;1.45;1.35;;;9.50;99.90;;;;;;5062000;28;20659;-62
2023/04/11 02:06:49;;;;;;;1.83;1.50;;;9.50;99.90;;;;;;5061878;28;20292;-62
2023/04/11 02:09:16;;;;;;;3.60;1.90;;;9.50;99.90;;;;;;5061752;28;20205;-61
2023/04/11 02:11:43;;;;;;;1.55;1.40;;;9.40;99.90;;;;;;5060381;28;20241;-61
2023/04/11 02:14:13;;;;;;;2.75;1.50;;;9.40;99.90;;;;;;5058386;28;20209;-61
2023/04/11 02:16:51;;;;;;;2.60;1.30;;;9.40;99.90;;;;;;5057859;28;20269;-60
2023/04/11 02:19:19;;;;;;;2.80;1.30;;;9.30;99.90;;;;;;5057888;28;20200;-61
2023/04/11 02:21:46;;;;;;;2.40;1.27;;;9.30;99.90;;;;;;5056266;28;20218;-60
2023/04/11 02:24:13;;;;;;;1.88;1.75;;;9.20;99.90;;;;;;5055978;28;20783;-60
2023/04/11 02:26:41;;;;;;;1.63;1.30;;;9.20;99.90;;;;;;5055251;28;20198;-61
2023/04/11 02:29:08;;;;;;;1.40;1.30;;;9.20;99.90;;;;;;5055528;28;20198;-59
2023/04/11 02:31:35;;;;;;;3.30;1.25;;;9.20;99.90;;;;;;5055734;28;20602;-60
2023/04/11 02:34:03;;;;;;;2.97;1.60;;;9.20;99.90;;;;;;5055399;28;20198;-60
2023/04/11 02:36:30;;;;;;;2.90;1.65;;;9.20;99.90;;;;;;5055364;28;20248;-61
2023/04/11 02:38:56;;;;;;;3.05;1.23;;;9.20;99.90;;;;;;5055550;28;20206;-61
2023/04/11 02:41:23;;;;;;;1.50;1.30;;;9.20;99.90;;;;;;5055759;28;20217;-60
2023/04/11 02:43:50;;;;;;;2.75;1.30;;;9.20;99.90;;;;;;5055339;28;20202;-61
2023/04/11 02:46:17;;;;;;;3.33;1.30;;;9.20;99.90;;;;;;5054954;28;20201;-61
2023/04/11 02:48:43;;;;;;;6.18;1.40;;;9.30;99.90;;;;;;5055042;28;20206;-60
2023/04/11 02:51:11;;;;;;;2.97;1.80;;;9.30;99.90;;;;;;5053488;28;20230;-61
2023/04/11 02:53:38;;;;;;;2.90;1.45;;;9.30;99.90;;;;;;5054750;28;20208;-60
2023/04/11 02:56:06;;;;;;;1.95;1.65;;;9.40;99.90;;;;;;5054723;28;20213;-60
2023/04/11 02:58:37;;;;;;;1.58;1.45;;;9.40;99.90;;;;;;5054777;28;20702;-61
2023/04/11 03:01:05;;;;;;;3.42;1.60;;;9.40;99.90;;;;;;5055051;28;20217;-61
2023/04/11 03:03:32;;;;;;;2.58;1.58;;;9.40;99.90;;;;;;5055165;28;20216;-61
2023/04/11 03:05:58;;;;;;;2.88;1.75;;;9.40;99.90;;;;;;5054856;28;20212;-60
2023/04/11 03:08:27;;;;;;;2.88;2.20;;;9.40;99.90;;;;;;5054687;28;20605;-61
2023/04/11 03:10:54;;;;;;;3.78;2.22;;;9.40;99.90;;;;;;5054241;28;20732;-60
2023/04/11 03:13:20;;;;;;;4.10;1.75;;;9.40;99.90;;;;;;5054481;28;20201;-62
2023/04/11 03:15:47;;;;;;;4.15;1.65;;;9.40;99.90;;;;;;5054828;28;20580;-61
2023/04/11 03:18:14;;;;;;;1.65;1.15;;;9.40;99.90;;;;;;5054950;28;20229;-62
2023/04/11 03:20:41;;;;;;;4.75;1.85;;;9.40;99.90;;;;;;5054827;28;20225;-61
2023/04/11 03:23:08;;;;;;;3.00;1.90;;;9.40;99.90;;;;;;5054647;28;20212;-60
2023/04/11 03:25:36;;;;;;;2.45;1.45;;;9.40;99.90;;;;;;5055101;28;20208;-61
2023/04/11 03:28:03;;;;;;;1.92;1.77;;;9.40;99.90;;;;;;5054573;28;20213;-60
2023/04/11 03:30:30;;;;;;;3.25;1.35;;;9.50;99.90;;;;;;5054032;28;20217;-61
2023/04/11 03:32:59;;;;;;;2.15;1.20;;;9.50;99.90;;;;;;5054307;28;20208;-61
2023/04/11 03:35:25;;;;;;;4.75;2.00;;;9.30;99.90;;;;;;5054095;28;20236;-60
2023/04/11 03:37:52;;;;;;;2.60;1.17;;;9.00;99.90;;;;;;5053552;28;20218;-57
2023/04/11 03:40:19;;;;;;;2.15;1.27;;;8.70;99.90;;;;;;5053661;28;20685;-60
2023/04/11 03:42:47;;;;;;;4.00;1.70;;;8.40;99.90;;;;;;5056848;28;20198;-62
2023/04/11 03:45:14;;;;;;;3.20;1.67;;;8.20;99.90;;;;;;5058225;28;20205;-60
2023/04/11 03:47:41;;;;;;;3.95;1.42;;;8.10;99.90;;;;;;5058328;28;20304;-61
2023/04/11 03:50:08;;;;;;;2.35;1.38;;;8.00;99.90;;;;;;5055383;28;20228;-61
2023/04/11 03:52:36;;;;;;;2.72;1.13;;;8.00;99.90;;;;;;5054249;28;20192;-60
2023/04/11 03:55:04;;;;;;;2.65;1.30;;;7.90;99.90;;;;;;5055054;28;20197;-60
2023/04/11 03:57:31;;;;;;;3.70;1.60;;;7.90;99.90;;;;;;5054498;28;20217;-60
2023/04/11 03:59:59;;;;;;;2.67;1.35;;;7.90;99.90;;;;;;5053846;28;20202;-60
2023/04/11 04:02:26;;;;;;;5.20;1.95;;;7.90;99.90;;;;;;5053475;28;20293;-61
2023/04/11 04:04:57;;;;;;;2.13;1.58;;;7.80;99.90;;;;;;5053584;28;20685;-60
2023/04/11 04:07:24;;;;;;;3.92;2.40;;;7.90;99.90;;;;;;5053598;28;20273;-60
2023/04/11 04:11:33;;;;;;;6.60;2.35;;;7.80;99.90;;;;;;5092734;28;20607;-61
2023/04/11 04:14:01;;;;;;;3.22;2.00;;;7.60;99.90;;;;;;5091262;28;20678;-62
2023/04/11 04:16:27;;;;;;;7.45;2.95;;;7.60;99.90;;;;;;5092581;28;20236;-62
2023/04/11 04:18:54;;;;;;;7.05;2.90;;;7.50;99.90;;;;;;5094463;28;20205;-60
2023/04/11 04:21:25;;;;;;;5.85;2.78;;;7.50;99.90;;;;;;5093702;28;20216;-62
2023/04/11 04:23:52;;;;;;;10.25;2.97;;;7.40;99.90;;;;;;5093936;28;20275;-61
2023/04/11 04:26:23;;;;;;;5.90;2.67;;;7.40;99.90;;;;;;5095205;28;20219;-62
2023/04/11 04:28:52;;;;;;;7.80;2.95;;;7.40;99.90;;;;;;5095396;28;20204;-61
2023/04/11 04:31:24;;;;;;;8.05;3.05;;;7.40;99.90;;;;;;5091949;28;20263;-61
2023/04/11 04:33:51;;;;;;;5.47;2.50;;;7.40;99.90;;;;;;5091506;28;20181;-61
2023/04/11 04:36:17;;;;;;;2.97;2.40;;;7.40;99.90;;;;;;5091740;28;20287;-60
2023/04/11 04:38:44;;;;;;;5.72;2.72;;;7.40;99.90;;;;;;5091916;28;20197;-62
2023/04/11 04:41:14;;;;;;;9.50;2.85;;;7.40;99.90;;;;;;5091030;28;20724;-61
2023/04/11 04:43:41;;;;;;;5.60;2.25;;;7.40;99.90;;;;;;5092083;28;20661;-62
2023/04/11 04:46:10;;;;;;;8.75;3.08;;;7.50;99.90;;;;;;5091746;28;20197;-60
2023/04/11 04:48:36;;;;;;;7.28;2.30;;;7.50;99.90;;;;;;5092358;28;20196;-63
2023/04/11 04:51:04;;;;;;;7.45;2.40;;;7.50;99.90;;;;;;5090920;28;20228;-60
2023/04/11 04:53:33;;;;;;;4.03;2.45;;;7.60;99.90;;;;;;5091435;28;20683;-60
2023/04/11 04:56:00;;;;;;;8.63;3.15;;;7.60;99.90;;;;;;5091675;28;20211;-60
2023/04/11 04:58:27;;;;;;;6.47;2.72;;;7.60;99.90;;;;;;5091860;28;20579;-61
2023/04/11 05:00:55;;;;;;;4.53;2.53;;;7.60;99.90;;;;;;5092253;28;20589;-62
2023/04/11 05:03:23;;;;;;;9.25;2.88;;;7.60;99.90;;;;;;5091950;28;20295;-61
2023/04/11 05:05:50;;;;;;;7.88;3.08;;;7.70;99.90;;;;;;5091097;28;20669;-61
2023/04/11 05:08:19;;;;;;;7.65;2.95;;;7.60;99.90;;;;;;5092213;28;20232;-61
2023/04/11 05:10:46;;;;;;;7.38;2.60;;;7.60;99.90;;;;;;5090598;28;20225;-60
2023/04/11 05:13:13;;;;;;;3.85;2.45;;;7.60;99.90;;;;;;5092681;28;20200;-60
2023/04/11 05:15:40;;;;;;;5.85;2.67;;;7.70;99.90;;;;;;5091831;28;20223;-59
2023/04/11 05:18:06;;;;;;;7.53;3.00;;;7.70;99.90;;;;;;5092108;28;20219;-60
2023/04/11 05:20:35;;;;;;;7.68;4.53;;;7.80;99.90;;;;;;5091161;28;20220;-62
2023/04/11 05:23:02;;;;;;;5.10;3.17;;;7.80;99.90;;;;;;5077318;28;20232;-61
2023/04/11 05:25:28;;;;;;;5.30;3.50;;;7.80;99.90;;;;;;5079346;28;20211;-62
2023/04/11 05:27:55;;;;;;;6.40;3.15;;;7.90;99.90;;;;;;5079398;28;20709;-61
2023/04/11 05:30:22;;;;;;;7.07;3.72;;;7.90;99.90;;;;;;5079155;28;20236;-62
2023/04/11 05:32:49;;;;;;;8.05;4.40;;;7.90;99.90;;;;;;5078101;28;20304;-62
2023/04/11 05:35:16;;;;;;;8.85;4.15;;;7.90;99.90;;;;;;5078477;28;20720;-62
2023/04/11 05:37:44;;;;;;;7.63;3.60;;;7.90;99.90;;;;;;5078150;28;20552;-62
2023/04/11 05:40:11;;;;;;;8.55;4.30;;;7.90;99.90;;;;;;5079400;28;20256;-62
2023/04/11 05:42:38;;;;;;;7.90;4.13;;;7.90;99.90;;;;;;5079062;28;20211;-62
2023/04/11 05:45:06;;;;;;;5.28;3.30;;;8.00;99.90;;;;;;5078332;28;20209;-62
2023/04/11 05:47:33;;;;;;;3.72;2.10;;;8.10;99.90;;;;;;5078830;28;20201;-63
2023/04/11 05:50:00;;;;;;;7.72;2.67;;;8.10;99.90;;;;;;5081880;28;20224;-63
2023/04/11 05:52:27;;;;;;;2.30;1.35;;;7.90;99.90;;;;;;5080858;28;20200;-62
2023/04/11 05:54:55;;;;;;;5.03;2.08;;;7.80;99.90;;;;;;5078028;28;20197;-62
2023/04/11 05:57:22;;;;;;;7.05;2.67;;;7.60;99.90;;;;;;5077832;28;20205;-62
2023/04/11 05:59:51;;;;;;;4.55;1.90;;;7.50;99.90;;;;;;5078967;28;20224;-63
2023/04/11 06:02:18;;;;;;;3.13;1.60;;;7.50;99.90;;;;;;5080131;28;20221;-62
2023/04/11 06:04:45;;;;;;;5.20;2.38;;;7.40;99.90;;;;;;5079238;28;20204;-63
2023/04/11 06:07:12;;;;;;;4.50;1.60;;;7.40;99.90;;;;;;5080918;28;20223;-61
2023/04/11 06:09:40;;;;;;;2.53;1.88;;;7.40;99.90;;;;;;5081953;28;20216;-62
2023/04/11 06:12:09;;;;;;;2.75;1.60;;;7.50;99.90;;;;;;5082739;28;20229;-62
2023/04/11 06:14:37;;;;;;;5.40;2.95;;;7.50;99.90;;;;;;5082628;28;20197;-63
2023/04/11 06:17:04;;;;;;;3.60;2.40;;;7.60;99.90;;;;;;5082157;28;20205;-62
2023/04/11 06:19:31;;;;;;;4.10;2.05;;;7.60;99.90;;;;;;5082852;28;20200;-61
2023/04/11 06:21:58;;;;;;;2.60;1.92;;;7.70;99.90;;;;;;5081541;28;20248;-62
2023/04/11 06:24:35;;;;;;;3.10;1.60;;;7.70;99.90;;;;;;5077375;28;20201;-61
2023/04/11 06:27:02;;;;;;;2.35;1.80;;;7.60;99.90;;;;;;5078462;28;20204;-62
2023/04/11 06:29:30;;;;;;;2.40;1.70;;;7.60;99.90;;;;;;5078170;28;20205;-62
2023/04/11 06:31:58;;;;;;;4.45;1.83;;;7.40;99.90;;;;;;5079158;28;20236;-61
2023/04/11 06:34:25;;;;;;;2.58;1.75;;;7.30;99.90;;;;;;5076999;28;20281;-62
2023/04/11 06:36:52;;;;;;;2.45;1.35;;;7.10;99.90;;;;;;5078732;28;20255;-63
2023/04/11 06:39:19;;;;;;;5.88;1.60;;;7.00;99.90;;;;;;5078648;28;20204;-61
2023/04/11 06:41:47;;;;;;;4.63;2.13;;;6.90;99.90;;;;;;5079097;28;20221;-62
2023/04/11 06:44:14;;;;;;;6.32;1.80;;;6.90;99.90;;;;;;5078120;28;20574;-63
2023/04/11 06:46:42;;;;;;;2.38;1.58;;;6.80;99.90;;;;;;5078045;28;20205;-61
2023/04/11 06:49:10;;;;;;;2.88;1.45;;;6.80;99.90;;;;;;5077467;28;20228;-63
2023/04/11 06:51:37;;;;;;;2.03;1.60;;;6.80;99.90;;;;;;5077438;28;20647;-62
2023/04/11 06:54:05;;;;;;;2.75;1.90;;;6.80;99.90;;;;;;5077939;28;20197;-62
2023/04/11 06:56:32;;;;;;;4.28;1.80;;;6.80;99.90;;;;;;5078033;28;20212;-63
2023/04/11 06:58:58;;;;;;;5.35;1.80;;;6.90;99.90;;;;;;5078365;28;20200;-62
2023/04/11 07:01:29;;;;;;;5.68;1.45;;;7.00;99.90;;;;;;5077938;28;20217;-63
2023/04/11 07:03:58;;;;;;;4.03;1.92;;;7.10;99.90;;;;;;5077759;28;20296;-62
2023/04/11 07:06:25;;;;;;;2.78;1.77;;;7.30;99.90;;;;;;5077055;28;20212;-62
2023/04/11 07:08:52;;;;;;;2.85;1.55;;;7.40;99.90;;;;;;5077276;28;20295;-63
2023/04/11 07:11:19;;;;;;;2.17;1.88;;;7.60;99.90;;;;;;5077023;28;20232;-62
2023/04/11 07:13:47;;;;;;;4.47;2.55;;;7.70;99.90;;;;;;5077765;28;20215;-62
2023/04/11 07:16:13;;;;;;;6.15;2.05;;;7.80;99.90;;;;;;5077796;28;20197;-62
2023/04/11 07:18:40;;;;;;;3.03;1.80;;;7.90;99.90;;;;;;5077651;28;20215;-62
2023/04/11 07:21:11;;;;;;;4.03;2.20;;;7.90;99.90;;;;;;5077825;28;20311;-61
2023/04/11 07:23:38;;;;;;;5.78;1.88;;;8.00;99.90;;;;;;5078388;28;20288;-61
2023/04/11 07:26:07;;;;;;;4.05;2.15;;;8.10;99.90;;;;;;5077983;28;20668;-62
2023/04/11 07:28:36;;;;;;;7.53;2.60;;;8.10;99.90;;;;;;5077889;28;20197;-61
2023/04/11 07:31:03;;;;;;;2.38;2.08;;;8.10;99.90;;;;;;5079170;28;20233;-62
2023/04/11 07:33:29;;;;;;;6.32;1.90;;;8.10;99.90;;;;;;5078670;28;20292;-61
2023/04/11 07:35:56;;;;;;;4.30;1.75;;;8.20;99.90;;;;;;5079408;28;20308;-62
2023/04/11 07:38:28;;;;;;;1.95;1.60;;;8.20;99.90;;;;;;5078700;28;20201;-62
2023/04/11 07:40:55;;;;;;;2.88;1.40;;;8.30;99.90;;;;;;5078852;28;20307;-62
2023/04/11 07:43:21;;;;;;;2.83;1.90;;;8.40;99.90;;;;;;5081530;28;20667;-62
2023/04/11 07:45:48;;;;;;;7.28;2.25;;;8.40;99.90;;;;;;5077345;28;20283;-62
2023/04/11 07:48:15;;;;;;;4.35;2.20;;;8.50;99.90;;;;;;5078370;28;20193;-61
2023/04/11 07:50:42;;;;;;;4.05;2.95;;;8.60;99.90;;;;;;5078311;28;20243;-63
2023/04/11 07:53:09;;;;;;;6.70;2.78;;;8.70;99.90;;;;;;5079088;28;20237;-61
2023/04/11 07:55:37;;;;;;;4.57;2.10;;;8.80;99.90;;;;;;5079235;28;20647;-61
2023/04/11 07:58:04;;;;;;;5.88;2.63;;;9.00;99.90;;;;;;5079534;28;20216;-62
2023/04/11 08:00:32;;;;;;;5.45;3.03;;;9.10;99.90;;;;;;5085220;28;20221;-62
2023/04/11 08:03:01;;;;;;;8.07;3.60;;;9.30;99.90;;;;;;5086004;28;20201;-61
2023/04/11 08:05:29;;;;;;;4.53;1.80;;;9.40;99.90;;;;;;5085779;28;20205;-62
2023/04/11 08:07:56;;;;;;;6.93;2.03;;;9.50;99.90;;;;;;5084922;28;20254;-61
2023/04/11 08:10:22;;;;;;;7.13;2.40;;;9.60;99.90;;;;;;5083239;28;20240;-62
2023/04/11 08:12:51;;;;;;;6.32;2.65;;;9.70;99.90;;;;;;5080517;28;20709;-62
2023/04/11 08:15:18;;;;;;;8.15;4.55;;;9.80;99.90;;;;;;5076781;28;20671;-62
2023/04/11 08:17:48;;;;;;;3.70;2.08;;;9.90;99.90;;;;;;5078000;28;20579;-62
2023/04/11 08:20:16;;;;;;;4.43;2.53;;;10.00;99.90;;;;;;5081574;28;20211;-62
2023/04/11 08:22:45;;;;;;;4.65;2.13;;;10.10;99.90;;;;;;5105646;22;20197;-63
2023/04/11 08:25:14;;;;;;;3.80;2.30;;;10.20;99.90;;;;;;5033287;28;20228;-62
2023/04/11 08:27:41;;;;;;;6.33;2.77;;;10.20;99.90;;;;;;5034024;28;20456;-65
2023/04/11 08:30:10;;;;;;;3.53;2.00;;;10.20;99.90;;;;;;5033802;28;20445;-65
2023/04/11 08:32:37;;;;;;;4.27;1.93;;;10.40;99.90;;;;;;5033376;28;20576;-63
2023/04/11 08:35:04;;;;;;;4.53;2.13;;;10.50;99.90;;;;;;5033013;28;21005;-62
2023/04/11 08:37:31;;;;;;;2.70;1.70;;;10.50;99.90;;;;;;5033886;28;20449;-62
2023/04/11 08:39:58;;;;;;;4.40;1.97;;;10.50;99.90;;;;;;5034307;28;20453;-62
2023/04/11 08:42:25;;;;;;;3.93;2.03;;;10.50;99.90;;;;;;5034308;28;20448;-62
2023/04/11 08:44:54;;;;;;;2.93;2.27;;;10.50;99.90;;;;;;5033454;28;20928;-64
2023/04/11 08:47:22;;;;;;;4.37;2.73;;;10.60;99.90;;;;;;5033655;28;20445;-64
2023/04/11 08:49:49;;;;;;;4.47;2.50;;;10.70;99.90;;;;;;5033549;28;20451;-62
2023/04/11 08:52:18;;;;;;;10.43;2.13;;;10.60;99.90;;;;;;5033707;28;20480;-63
2023/04/11 08:54:45;;;;;;;5.13;1.83;;;10.50;99.90;;;;;;5032872;28;20477;-64
2023/04/11 08:57:24;;;;;;;4.53;2.47;;;10.40;99.90;;;;;;5034350;28;20690;-63
2023/04/11 08:59:51;;;;;;;6.00;1.93;;;10.30;99.90;;;;;;5036761;28;20445;-63
2023/04/11 09:02:18;;;;;;;3.83;1.87;;;10.40;99.90;;;;;;5036644;28;20445;-62
2023/04/11 09:04:47;;;;;;;7.33;2.33;;;10.70;99.90;;;;;;5036256;28;21012;-64
2023/04/11 09:07:15;;;;;;;5.50;1.80;;;11.10;99.90;;;;;;5036514;28;20496;-62
2023/04/11 09:09:43;;;;;;;5.23;2.10;;;11.40;98.30;;;;;;5037174;28;20480;-61
2023/04/11 09:12:09;;;;;;;2.80;1.63;;;11.60;97.30;;;;;;5036902;28;20514;-62
2023/04/11 09:14:36;;;;;;;2.00;1.47;;;11.70;92.60;;;;;;5037543;28;20487;-60
2023/04/11 09:17:05;;;;;;;7.03;1.77;;;11.70;91.50;;;;;;5037618;28;20456;-61
2023/04/11 09:19:34;;;;;;;3.20;1.57;;;11.50;90.40;;;;;;5037867;28;20471;-62
2023/04/11 09:22:04;;;;;;;4.50;2.10;;;11.40;91.00;;;;;;5036521;28;20441;-61
2023/04/11 09:24:32;;;;;;;3.90;2.07;;;11.40;90.90;;;;;;5037338;28;20493;-62
2023/04/11 09:27:13;;;;;;;6.00;2.13;;;11.40;90.70;;;;;;5036317;28;20449;-62
2023/04/11 09:29:41;;;;;;;3.53;1.80;;;11.60;90.90;;;;;;5036098;28;20440;-62
2023/04/11 09:32:25;;;;;;;3.03;1.50;;;11.70;89.50;;;;;;5036565;28;20534;-62
2023/04/11 09:34:51;;;;;;;2.67;1.60;;;11.70;87.10;;;;;;5036225;28;20460;-63
2023/04/11 09:37:20;;;;;;;3.20;1.97;;;11.70;81.80;;;;;;5036150;28;20441;-62
2023/04/11 09:39:57;;;;;;;4.13;2.13;;;11.70;81.00;;;;;;5035824;28;20943;-63
2023/04/11 09:42:25;;;;;;;6.70;1.70;;;11.70;79.80;;;;;;5036167;28;20783;-63
2023/04/11 09:44:52;;;;;;;7.60;1.93;;;11.70;80.50;;;;;;5035908;28;20464;-63
2023/04/11 09:47:19;;;;;;;2.57;1.33;;;11.80;78.80;;;;;;5036396;28;20444;-61
2023/04/11 09:49:47;;;;;;;5.60;2.00;;;12.00;77.10;;;;;;5036403;28;20445;-62
2023/04/11 09:52:17;;;;;;;4.07;1.50;;;12.10;74.90;;;;;;5035693;28;20481;-62
2023/04/11 09:54:46;;;;;;;2.30;1.40;;;12.00;74.40;;;;;;5035714;28;20982;-61
2023/04/11 09:57:14;;;;;;;3.27;1.60;;;11.80;75.50;;;;;;5035715;28;20452;-62
2023/04/11 09:59:41;;;;;;;2.60;1.30;;;11.60;77.20;;;;;;5035900;28;20452;-60
2023/04/11 10:02:08;;;;;;;2.73;1.80;;;11.40;79.40;;;;;;5035863;28;20445;-62
2023/04/11 10:04:37;;;;;;;2.60;1.33;;;11.10;78.90;;;;;;5035768;28;20457;-63
2023/04/11 10:07:12;;;;;;;3.60;1.50;;;10.70;83.70;;;;;;5035445;28;20488;-61
2023/04/11 10:09:41;;;;;;;1.90;1.40;;;10.10;91.10;;;;;;5035506;28;20440;-62
2023/04/11 10:12:10;;;;;;;2.03;1.30;;;9.70;93.00;;;;;;5035094;28;20539;-62
2023/04/11 10:14:45;;;;;;;4.75;1.98;;;9.50;94.60;;;;;;5035229;28;20226;-61
2023/04/11 10:17:14;;;;;;;2.22;1.60;;;9.50;95.20;;;;;;5035034;28;20201;-62
2023/04/11 10:19:41;;;;;;;3.15;1.77;;;9.70;95.00;;;;;;5036205;28;20587;-62
2023/04/11 10:22:08;;;;;;;2.20;1.30;;;9.80;94.90;;;;;;5035788;28;20238;-62
2023/04/11 10:24:35;;;;;;;2.67;1.90;;;10.10;94.00;;;;;;5034591;28;20481;-62
2023/04/11 10:27:03;;;;;;;2.47;2.27;;;10.50;93.40;;;;;;5034853;28;20444;-61
2023/04/11 10:29:52;;;;;;;5.40;2.57;;;10.80;92.60;;;;;;5034721;28;20449;-61
2023/04/11 10:32:21;;;;;;;5.13;1.50;;;11.30;90.90;;;;;;5034933;28;20473;-60
2023/04/11 10:35:20;;;;;;;3.40;1.80;;;11.70;88.30;;;;;;5034986;28;20473;-61
2023/04/11 10:37:47;;;;;;;2.30;1.60;;;12.10;82.40;;;;;;5034676;28;20491;-62
2023/04/11 10:40:14;;;;;;;2.80;1.73;;;12.30;77.10;;;;;;5034606;28;20487;-62
2023/04/11 10:42:43;;;;;;;3.73;1.40;;;12.50;74.80;;;;;;5034772;28;20445;-62
2023/04/11 10:45:20;;;;;;;3.03;1.50;;;12.70;70.00;;;;;;5034834;28;20540;-62
2023/04/11 10:48:10;;;;;;;4.30;1.90;;;12.90;63.70;;;;;;5033880;28;20927;-61
2023/04/11 10:50:40;;;;;;;1.40;1.03;;;12.90;61.30;;;;;;5034123;28;20433;-63
2023/04/11 10:53:13;;;;;;;4.13;1.17;;;12.90;56.90;;;;;;5034306;28;21048;-62
2023/04/11 10:55:47;;;;;;;2.90;1.17;;;12.80;55.40;;;;;;5033929;28;20411;-62
2023/04/11 10:58:18;;;;;;;2.43;1.30;;;12.80;55.00;;;;;;5034798;28;20309;-62
2023/04/11 11:01:15;;;;;;;4.23;1.20;;;13.00;54.00;;;;;;5034512;28;20528;-64
2023/04/11 11:03:52;;;;;;;2.07;1.10;;;13.10;53.00;;;;;;5033804;28;20508;-62
2023/04/11 11:06:20;;;;;;;3.73;1.37;;;13.30;52.30;;;;;;5033793;28;20910;-62
2023/04/11 11:08:47;;;;;;;2.10;1.40;;;13.50;52.10;;;;;;5033481;28;20449;-61
2023/04/11 11:11:14;;;;;;;3.20;1.23;;;13.70;50.20;;;;;;5033621;28;20452;-61
2023/04/11 11:13:43;;;;;;;1.47;1.00;;;13.70;49.10;;;;;;5033920;28;20472;-61
2023/04/11 11:16:15;;;;;;;4.13;1.27;;;13.70;49.20;;;;;;5033920;28;20452;-61
2023/04/11 11:18:46;;;;;;;4.60;2.30;;;13.70;48.90;;;;;;5033523;28;20900;-62
2023/04/11 11:21:14;;;;;;;4.50;1.47;;;13.60;49.20;;;;;;5034280;28;20441;-62
2023/04/11 11:23:52;;;;;;;2.33;1.60;;;13.60;50.00;;;;;;5034421;28;20511;-60
2023/04/11 11:26:19;;;;;;;3.47;1.90;;;13.30;49.60;;;;;;5034919;28;20460;-61
2023/04/11 11:28:46;;;;;;;4.30;1.30;;;13.00;50.30;;;;;;5034163;28;20492;-61
2023/04/11 11:31:15;;;;;;;4.10;1.27;;;12.80;50.80;;;;;;5035538;28;20453;-61
2023/04/11 11:33:42;;;;;;;2.47;1.33;;;12.70;51.00;;;;;;5034553;28;20496;-62
2023/04/11 11:36:10;;;;;;;2.30;1.23;;;12.70;51.30;;;;;;5036410;28;20449;-60
2023/04/11 11:38:37;;;;;;;6.67;2.23;;;12.70;51.20;;;;;;5036503;28;20532;-62
2023/04/11 11:41:05;;;;;;;1.60;1.50;;;12.80;50.90;;;;;;5036566;28;20457;-61
2023/04/11 11:43:36;;;;;;;4.10;1.53;;;12.80;51.00;;;;;;5035726;28;20515;-62
2023/04/11 11:46:08;;;;;;;2.67;1.30;;;12.90;51.40;;;;;;5035457;28;20487;-62
2023/04/11 11:48:36;;;;;;;4.13;1.37;;;13.20;51.70;;;;;;5034406;28;20448;-62
2023/04/11 11:51:03;;;;;;;5.97;1.77;;;13.30;51.30;;;;;;5034746;28;20452;-61
2023/04/11 11:53:31;;;;;;;2.93;1.60;;;13.40;51.20;;;;;;5034559;28;20489;-62
2023/04/11 11:55:58;;;;;;;2.43;1.70;;;13.50;51.30;;;;;;5034365;28;20499;-63
2023/04/11 11:58:26;;;;;;;2.63;1.50;;;13.80;50.60;;;;;;5033865;28;20472;-61
2023/04/11 12:00:53;;;;;;;2.43;1.20;;;14.00;50.00;;;;;;5033846;28;20459;-62
2023/04/11 12:03:22;;;;;;;3.50;1.30;;;14.30;49.20;;;;;;5034400;28;20469;-62
2023/04/11 12:05:51;;;;;;;3.77;1.47;;;14.30;48.90;;;;;;5034079;28;20476;-62
2023/04/11 12:08:21;;;;;;;4.47;1.53;;;14.20;48.60;;;;;;5033888;28;20447;-63
2023/04/11 12:10:49;;;;;;;2.70;1.20;;;14.10;49.10;;;;;;5033368;28;20761;-62
2023/04/11 12:13:18;;;;;;;5.83;2.20;;;14.10;49.20;;;;;;5033793;28;20513;-61
2023/04/11 12:15:49;;;;;;;2.77;1.27;;;14.20;48.90;;;;;;5033237;28;20805;-61
2023/04/11 12:18:16;;;;;;;2.73;1.30;;;14.40;48.00;;;;;;5033778;28;20436;-62
2023/04/11 12:20:43;;;;;;;5.23;1.80;;;14.40;47.90;;;;;;5033268;28;20456;-62
2023/04/11 12:23:11;;;;;;;3.33;1.40;;;14.70;48.00;;;;;;5032905;28;20511;-61
2023/04/11 12:25:39;;;;;;;2.63;1.00;;;14.90;47.00;;;;;;5033184;28;20437;-61
2023/04/11 12:28:07;;;;;;;3.20;1.27;;;14.80;46.30;;;;;;5033200;28;20449;-63
2023/04/11 12:30:33;;;;;;;2.90;1.40;;;14.60;46.30;;;;;;5033099;28;20452;-61
2023/04/11 12:33:00;;;;;;;5.60;1.60;;;14.30;46.40;;;;;;5037757;28;20493;-61
2023/04/11 12:35:27;;;;;;;6.60;1.60;;;14.00;46.80;;;;;;5036877;28;20821;-63
2023/04/11 12:37:54;;;;;;;3.07;1.70;;;14.00;47.40;;;;;;5036585;28;20455;-61
2023/04/11 12:40:24;;;;;;;2.30;1.07;;;14.30;47.70;;;;;;5036816;28;20949;-61
2023/04/11 12:42:50;;;;;;;3.73;0.93;;;14.50;46.90;;;;;;5036535;28;20520;-61
2023/04/11 12:45:17;;;;;;;3.03;1.53;;;14.60;46.30;;;;;;5036587;28;20497;-62
2023/04/11 12:47:44;;;;;;;5.10;1.63;;;14.70;45.30;;;;;;5036479;28;20460;-63
2023/04/11 12:50:11;;;;;;;1.73;1.20;;;14.50;44.60;;;;;;5036479;28;20883;-62
2023/04/11 12:52:38;;;;;;;3.53;1.20;;;14.40;44.70;;;;;;5036418;28;20476;-64
2023/04/11 12:55:07;;;;;;;4.13;1.73;;;14.30;44.80;;;;;;5036516;28;20460;-63
2023/04/11 12:57:35;;;;;;;10.90;2.23;;;14.30;45.40;;;;;;5036586;28;20483;-60
2023/04/11 13:00:11;;;;;;;4.23;1.70;;;14.10;46.90;;;;;;5036434;28;20943;-62